Time;durP1;ratioP1;P1;durP2;ratioP2;P2;SDS_P1;SDS_P2;PMS_P1;PMS_P2;Temp;Humidity;BMP_temperature;BMP_pressure;BME280_temperature;BME280_humidity;BME280_pressure;Samples;Min_cycle;Max_cycle;Signal;HPM_P1;HPM_P2
2021/08/04 00:00:34;;;;;;;5.55;1.67;;;16.00;99.90;;;;;;1881161;75;21073;-77
2021/08/04 00:03:00;;;;;;;6.10;1.20;;;16.00;99.90;;;;;;1881174;76;21077;-77
2021/08/04 00:05:26;;;;;;;2.47;1.37;;;15.90;99.90;;;;;;1881288;75;21078;-77
2021/08/04 00:07:52;;;;;;;1.65;1.50;;;15.90;99.90;;;;;;1881168;76;21105;-76
2021/08/04 00:10:18;;;;;;;1.30;1.07;;;15.80;99.90;;;;;;1881159;76;21081;-77
2021/08/04 00:12:45;;;;;;;3.25;1.50;;;15.70;99.90;;;;;;1881027;76;21082;-77
2021/08/04 00:15:11;;;;;;;1.42;1.20;;;15.70;99.90;;;;;;1881111;76;21078;-76
2021/08/04 00:17:37;;;;;;;1.40;1.20;;;15.70;99.90;;;;;;1881714;76;21041;-77
2021/08/04 00:20:03;;;;;;;1.25;1.20;;;15.60;99.90;;;;;;1882894;76;21061;-77
2021/08/04 00:22:29;;;;;;;1.62;1.52;;;15.60;99.90;;;;;;1880597;76;21085;-77
2021/08/04 00:24:55;;;;;;;1.20;1.10;;;15.60;99.90;;;;;;1880994;75;21078;-77
2021/08/04 00:27:21;;;;;;;2.00;1.20;;;15.60;99.90;;;;;;1883167;76;21047;-77
2021/08/04 00:29:47;;;;;;;3.60;1.70;;;15.60;99.90;;;;;;1880794;76;21156;-77
2021/08/04 00:32:14;;;;;;;4.10;1.47;;;15.60;99.90;;;;;;1881080;76;21057;-77
2021/08/04 00:34:40;;;;;;;1.72;1.40;;;15.60;99.90;;;;;;1881190;76;21086;-77
2021/08/04 00:37:06;;;;;;;2.20;1.30;;;15.50;99.90;;;;;;1880751;76;21035;-77
2021/08/04 00:39:32;;;;;;;3.12;1.42;;;15.50;99.90;;;;;;1883134;76;21057;-77
2021/08/04 00:41:58;;;;;;;1.42;1.35;;;15.50;99.90;;;;;;1882548;75;21128;-77
2021/08/04 00:44:24;;;;;;;1.67;1.57;;;15.50;99.90;;;;;;1883691;76;21086;-77
2021/08/04 00:46:50;;;;;;;2.08;1.60;;;15.40;99.90;;;;;;1882567;76;21059;-77
2021/08/04 00:49:16;;;;;;;1.65;1.55;;;15.40;99.90;;;;;;1881340;76;21443;-76
2021/08/04 00:51:43;;;;;;;1.37;1.27;;;15.40;99.90;;;;;;1880971;76;21557;-77
2021/08/04 00:54:09;;;;;;;3.87;1.20;;;15.40;99.90;;;;;;1881213;76;21470;-77
2021/08/04 00:56:35;;;;;;;2.95;1.40;;;15.40;99.90;;;;;;1881127;76;21458;-77
2021/08/04 00:59:01;;;;;;;1.67;1.57;;;15.30;99.90;;;;;;1881099;76;21509;-77
2021/08/04 01:01:27;;;;;;;1.80;1.70;;;15.30;99.90;;;;;;1881282;76;21547;-77
2021/08/04 01:03:53;;;;;;;2.05;1.32;;;15.30;99.90;;;;;;1881076;76;21579;-77
2021/08/04 01:06:19;;;;;;;3.83;1.30;;;15.30;99.90;;;;;;1881188;76;21047;-77
2021/08/04 01:08:45;;;;;;;2.72;1.50;;;15.40;99.90;;;;;;1881221;76;21077;-77
2021/08/04 01:11:11;;;;;;;2.87;1.72;;;15.30;99.90;;;;;;1881254;76;21074;-77
2021/08/04 01:13:38;;;;;;;1.70;1.60;;;15.30;99.90;;;;;;1881225;76;21147;-77
2021/08/04 01:16:04;;;;;;;2.27;1.65;;;15.30;99.90;;;;;;1881153;76;21020;-76
2021/08/04 01:21:15;;;;;;;1.67;1.52;;;15.30;99.90;;;;;;1994841;72;21070;-77
2021/08/04 01:23:41;;;;;;;2.22;1.70;;;15.30;99.90;;;;;;1994488;72;21081;-77
2021/08/04 01:26:07;;;;;;;1.77;1.27;;;15.30;99.90;;;;;;1998796;71;21102;-77
2021/08/04 01:28:34;;;;;;;2.75;1.32;;;15.20;99.90;;;;;;2000396;71;21022;-77
2021/08/04 01:31:00;;;;;;;3.35;1.60;;;15.20;99.90;;;;;;2001414;71;21077;-77
2021/08/04 01:33:26;;;;;;;2.47;1.77;;;15.20;99.90;;;;;;1998459;72;21010;-77
2021/08/04 01:35:52;;;;;;;2.05;1.50;;;15.10;99.90;;;;;;1997432;72;21171;-77
2021/08/04 01:38:18;;;;;;;2.15;1.25;;;15.20;99.90;;;;;;1997574;72;21070;-77
2021/08/04 01:40:44;;;;;;;2.83;1.80;;;15.20;99.90;;;;;;1977134;72;21066;-77
2021/08/04 01:43:10;;;;;;;4.28;1.80;;;15.10;99.90;;;;;;1997442;70;21127;-77
2021/08/04 01:45:36;;;;;;;7.10;1.50;;;15.20;99.90;;;;;;1997458;72;21156;-77
2021/08/04 01:48:03;;;;;;;1.10;1.00;;;15.20;99.90;;;;;;1997408;72;21074;-77
2021/08/04 01:50:29;;;;;;;1.98;1.27;;;15.30;99.90;;;;;;1997542;72;20995;-77
2021/08/04 01:52:55;;;;;;;5.58;1.40;;;15.30;99.90;;;;;;1997404;72;21506;-77
2021/08/04 01:55:21;;;;;;;1.30;1.20;;;15.20;99.90;;;;;;1997559;72;21454;-77
2021/08/04 01:57:47;;;;;;;1.17;1.07;;;15.20;99.90;;;;;;1997514;72;21559;-77
2021/08/04 02:00:13;;;;;;;2.47;1.30;;;15.30;99.90;;;;;;1997428;70;21423;-77
2021/08/04 02:02:39;;;;;;;1.60;1.50;;;15.30;99.90;;;;;;1997425;72;21483;-77
2021/08/04 02:05:05;;;;;;;1.60;1.10;;;15.30;99.90;;;;;;1997399;72;21490;-77
2021/08/04 02:07:32;;;;;;;1.62;1.47;;;15.30;99.90;;;;;;1997443;72;21108;-77
2021/08/04 02:09:58;;;;;;;7.40;1.57;;;15.30;99.90;;;;;;1997301;72;20991;-77
2021/08/04 02:12:25;;;;;;;5.55;1.05;;;15.30;99.90;;;;;;1997487;72;21058;-77
2021/08/04 02:14:51;;;;;;;2.50;1.47;;;15.30;99.90;;;;;;1997747;72;21054;-77
2021/08/04 02:17:17;;;;;;;3.15;1.55;;;15.30;99.90;;;;;;1997272;72;21051;-78
2021/08/04 02:19:43;;;;;;;1.20;1.10;;;15.40;99.90;;;;;;1997535;72;21140;-77
2021/08/04 02:22:09;;;;;;;1.82;1.57;;;15.40;99.90;;;;;;1997454;72;21069;-77
2021/08/04 02:24:35;;;;;;;2.05;1.32;;;15.30;99.90;;;;;;1997466;72;21066;-77
2021/08/04 02:27:02;;;;;;;2.50;1.40;;;15.30;99.90;;;;;;1997472;72;21123;-77
2021/08/04 02:29:28;;;;;;;2.37;1.42;;;15.30;99.90;;;;;;1997406;72;21103;-77
2021/08/04 02:31:54;;;;;;;2.22;1.20;;;15.30;99.90;;;;;;1997399;72;21066;-77
2021/08/04 02:34:20;;;;;;;3.05;1.65;;;15.30;99.90;;;;;;1997550;72;21439;-77
2021/08/04 02:36:46;;;;;;;2.42;1.45;;;15.40;99.90;;;;;;1997426;72;21486;-77
2021/08/04 02:39:12;;;;;;;2.75;1.40;;;15.40;99.90;;;;;;1997399;72;21553;-77
2021/08/04 02:41:38;;;;;;;1.57;1.40;;;15.30;99.90;;;;;;1997407;71;21539;-77
2021/08/04 02:44:04;;;;;;;1.40;1.30;;;15.20;99.90;;;;;;1997417;72;21510;-77
2021/08/04 02:46:31;;;;;;;2.55;1.20;;;15.20;99.90;;;;;;1997419;72;21540;-77
2021/08/04 02:48:57;;;;;;;3.70;1.32;;;15.20;99.90;;;;;;1997374;72;21051;-77
2021/08/04 02:51:23;;;;;;;1.40;1.30;;;15.20;99.90;;;;;;1997474;72;21062;-77
2021/08/04 02:53:49;;;;;;;1.40;1.30;;;15.20;99.90;;;;;;1997379;72;21062;-78
2021/08/04 02:56:16;;;;;;;1.50;1.40;;;15.20;99.90;;;;;;1997358;72;21031;-77
2021/08/04 02:58:42;;;;;;;1.55;1.45;;;15.10;99.90;;;;;;1997376;70;21093;-77
2021/08/04 03:01:08;;;;;;;2.70;1.50;;;15.10;99.90;;;;;;1997386;72;21058;-77
2021/08/04 03:03:34;;;;;;;3.17;1.40;;;15.10;99.90;;;;;;1997354;72;21135;-77
2021/08/04 03:06:00;;;;;;;1.40;1.22;;;15.10;99.90;;;;;;1997354;72;21027;-77
2021/08/04 03:08:26;;;;;;;2.62;1.45;;;15.00;99.90;;;;;;1997348;71;21144;-76
2021/08/04 03:10:52;;;;;;;1.60;1.50;;;15.10;99.90;;;;;;1997303;72;21269;-76
2021/08/04 03:13:19;;;;;;;1.62;1.42;;;15.10;99.90;;;;;;1997422;71;21074;-77
2021/08/04 03:15:45;;;;;;;2.80;1.50;;;15.00;99.90;;;;;;1997434;72;21383;-78
2021/08/04 03:18:11;;;;;;;4.80;1.80;;;15.10;99.90;;;;;;1997255;72;21474;-77
2021/08/04 03:20:37;;;;;;;3.75;1.60;;;15.00;99.90;;;;;;1997358;72;21454;-77
2021/08/04 03:23:03;;;;;;;2.58;1.50;;;15.00;99.90;;;;;;1997466;72;21532;-77
2021/08/04 03:25:29;;;;;;;1.85;1.65;;;15.00;99.90;;;;;;1997236;72;21431;-77
2021/08/04 03:27:56;;;;;;;2.20;1.92;;;15.10;99.90;;;;;;1997478;72;21478;-77
2021/08/04 03:30:23;;;;;;;2.45;1.40;;;15.00;99.90;;;;;;1997540;72;21109;-76
2021/08/04 03:32:49;;;;;;;1.95;1.32;;;15.00;99.90;;;;;;1997204;72;21066;-77
2021/08/04 03:35:15;;;;;;;1.25;1.25;;;15.00;99.90;;;;;;1997446;70;21054;-76
2021/08/04 03:37:41;;;;;;;2.10;1.47;;;15.10;99.90;;;;;;1997318;72;21151;-77
2021/08/04 03:40:08;;;;;;;1.60;1.42;;;15.00;99.90;;;;;;1997289;72;21054;-77
2021/08/04 03:42:34;;;;;;;2.27;1.72;;;15.10;99.90;;;;;;1997352;72;21050;-76
2021/08/04 03:45:00;;;;;;;1.30;1.20;;;15.10;99.90;;;;;;1997348;72;21031;-77
2021/08/04 03:47:26;;;;;;;1.30;1.17;;;15.00;99.90;;;;;;1997373;72;21057;-77
2021/08/04 03:49:52;;;;;;;2.08;1.42;;;15.00;99.90;;;;;;1997371;70;21198;-77
2021/08/04 03:52:18;;;;;;;1.42;1.30;;;15.10;99.90;;;;;;1997288;72;21575;-77
2021/08/04 03:54:45;;;;;;;3.17;1.40;;;15.00;99.90;;;;;;1996753;71;21147;-77
2021/08/04 03:57:11;;;;;;;4.20;1.75;;;15.00;99.90;;;;;;1997351;72;21061;-77
2021/08/04 03:59:37;;;;;;;1.30;1.20;;;15.00;99.90;;;;;;1994414;72;21063;-77
2021/08/04 04:02:03;;;;;;;3.15;1.25;;;15.00;99.90;;;;;;1995654;72;21053;-77
2021/08/04 04:04:30;;;;;;;2.42;1.62;;;15.00;99.90;;;;;;1996129;72;21131;-77
2021/08/04 04:06:56;;;;;;;1.50;1.40;;;14.90;99.90;;;;;;1995393;72;21132;-77
2021/08/04 04:09:22;;;;;;;2.05;1.62;;;14.90;99.90;;;;;;1997387;72;21027;-77
2021/08/04 04:11:48;;;;;;;2.45;1.75;;;14.90;99.90;;;;;;1997505;70;21058;-77
2021/08/04 04:14:14;;;;;;;1.45;1.35;;;14.90;99.90;;;;;;1997502;72;21062;-77
2021/08/04 04:16:40;;;;;;;2.80;1.70;;;14.90;99.90;;;;;;1997575;71;21124;-77
2021/08/04 04:19:08;;;;;;;1.98;1.50;;;14.90;99.90;;;;;;1997490;72;21027;-77
2021/08/04 04:21:34;;;;;;;1.27;1.20;;;14.80;99.90;;;;;;1997416;72;21061;-77
2021/08/04 04:24:00;;;;;;;3.15;1.80;;;14.80;99.90;;;;;;1997196;72;21058;-77
2021/08/04 04:26:26;;;;;;;3.08;1.60;;;14.80;99.90;;;;;;1997410;70;21132;-77
2021/08/04 04:28:52;;;;;;;7.97;1.60;;;14.80;99.90;;;;;;1997227;72;21070;-77
2021/08/04 04:31:18;;;;;;;2.52;1.52;;;14.90;99.90;;;;;;1997347;70;21054;-77
2021/08/04 04:33:44;;;;;;;2.00;1.80;;;14.90;99.90;;;;;;1997268;72;21057;-77
2021/08/04 04:36:11;;;;;;;2.92;2.05;;;14.90;99.90;;;;;;1997394;70;21127;-77
2021/08/04 04:38:37;;;;;;;1.77;1.45;;;14.80;99.90;;;;;;1997304;72;21035;-77
2021/08/04 04:41:03;;;;;;;2.42;1.70;;;14.90;99.90;;;;;;1997393;72;21171;-77
2021/08/04 04:43:29;;;;;;;5.03;1.80;;;15.00;99.90;;;;;;1997537;72;21124;-77
2021/08/04 04:45:55;;;;;;;5.12;1.98;;;15.10;99.90;;;;;;1997573;70;21058;-77
2021/08/04 04:48:21;;;;;;;1.40;1.30;;;15.10;99.90;;;;;;1997590;72;21031;-77
2021/08/04 04:50:47;;;;;;;3.33;1.52;;;15.10;99.90;;;;;;1997558;72;21054;-77
2021/08/04 04:53:13;;;;;;;2.42;1.37;;;15.10;99.90;;;;;;1997504;72;21119;-77
2021/08/04 04:55:40;;;;;;;2.60;1.98;;;15.20;99.90;;;;;;1997318;72;21054;-78
2021/08/04 04:58:06;;;;;;;5.12;1.22;;;15.30;99.90;;;;;;1997551;72;21031;-77
2021/08/04 05:00:32;;;;;;;2.25;1.40;;;15.30;99.90;;;;;;1997332;72;21058;-77
2021/08/04 05:02:58;;;;;;;1.60;1.50;;;15.20;99.90;;;;;;1997548;72;21120;-77
2021/08/04 05:05:24;;;;;;;2.60;1.55;;;15.20;99.90;;;;;;1997317;72;21070;-77
2021/08/04 05:07:50;;;;;;;2.02;1.75;;;15.20;99.90;;;;;;1997529;72;21031;-77
2021/08/04 05:10:16;;;;;;;3.30;2.00;;;15.30;99.90;;;;;;1997346;72;21058;-77
2021/08/04 05:12:42;;;;;;;1.90;1.75;;;15.40;99.90;;;;;;1997594;72;21113;-77
2021/08/04 05:15:09;;;;;;;2.25;1.72;;;15.50;99.90;;;;;;1997460;72;21524;-77
2021/08/04 05:17:35;;;;;;;6.53;2.65;;;15.60;99.90;;;;;;1997658;72;21439;-77
2021/08/04 05:20:01;;;;;;;3.83;2.17;;;15.50;99.90;;;;;;1997877;72;21496;-76
2021/08/04 05:22:27;;;;;;;3.50;1.98;;;15.50;99.90;;;;;;1997968;72;21506;-81
2021/08/04 05:24:53;;;;;;;7.35;1.98;;;15.70;99.90;;;;;;1997715;72;21525;-82
2021/08/04 05:27:19;;;;;;;8.10;2.15;;;15.80;99.90;;;;;;1997735;70;21520;-83
2021/08/04 05:29:45;;;;;;;5.90;1.82;;;15.80;99.90;;;;;;1997806;72;21579;-83
2021/08/04 05:32:11;;;;;;;5.58;2.33;;;15.80;99.90;;;;;;1997457;72;21058;-84
2021/08/04 05:34:38;;;;;;;2.45;1.85;;;15.90;99.90;;;;;;1997524;72;21054;-80
2021/08/04 05:37:04;;;;;;;3.87;1.90;;;16.10;99.90;;;;;;1997691;72;21033;-83
2021/08/04 05:39:30;;;;;;;6.53;1.70;;;16.00;99.90;;;;;;1997534;72;21050;-80
2021/08/04 05:41:56;;;;;;;3.35;1.62;;;16.20;99.90;;;;;;1997460;72;21120;-79
2021/08/04 05:44:23;;;;;;;1.72;1.60;;;16.30;99.90;;;;;;1997438;72;21162;-80
2021/08/04 05:46:50;;;;;;;3.33;1.87;;;16.20;99.90;;;;;;1997334;72;21139;-80
2021/08/04 05:49:16;;;;;;;6.35;1.98;;;16.20;99.90;;;;;;1997520;72;21058;-80
2021/08/04 05:51:42;;;;;;;7.78;2.00;;;16.30;99.90;;;;;;1997425;72;21055;-78
2021/08/04 05:54:08;;;;;;;4.55;1.70;;;16.30;99.90;;;;;;1997172;71;21031;-80
2021/08/04 05:56:34;;;;;;;3.00;1.27;;;16.50;99.90;;;;;;1996917;72;21050;-81
2021/08/04 05:59:01;;;;;;;1.50;1.40;;;16.50;99.90;;;;;;1997336;71;21065;-79
2021/08/04 06:01:27;;;;;;;4.53;1.60;;;16.50;99.90;;;;;;1997322;72;21078;-81
2021/08/04 06:03:53;;;;;;;2.30;1.62;;;16.60;99.90;;;;;;1995202;71;21105;-80
2021/08/04 06:06:20;;;;;;;3.00;1.60;;;16.90;99.90;;;;;;1997286;72;21027;-81
2021/08/04 06:08:47;;;;;;;1.90;1.80;;;16.90;99.90;;;;;;1997536;72;21031;-80
2021/08/04 06:11:13;;;;;;;2.62;1.40;;;17.20;99.90;;;;;;1997441;72;21117;-81
2021/08/04 06:13:39;;;;;;;3.65;1.70;;;17.30;99.90;;;;;;1997327;72;21062;-81
2021/08/04 06:16:05;;;;;;;2.33;1.80;;;17.50;99.90;;;;;;1997267;72;21051;-80
2021/08/04 06:18:31;;;;;;;2.02;1.47;;;17.50;99.90;;;;;;1997357;72;21054;-81
2021/08/04 06:20:57;;;;;;;2.55;1.40;;;17.30;99.90;;;;;;1997347;72;21066;-81
2021/08/04 06:23:23;;;;;;;9.70;1.70;;;17.50;99.90;;;;;;1997374;72;21105;-81
2021/08/04 06:25:49;;;;;;;2.27;1.62;;;17.20;99.90;;;;;;1997435;72;21050;-80
2021/08/04 06:28:16;;;;;;;2.98;1.80;;;17.20;99.90;;;;;;1997440;72;21058;-80
2021/08/04 06:30:42;;;;;;;3.90;1.72;;;17.10;99.90;;;;;;1997426;72;21057;-81
2021/08/04 06:33:08;;;;;;;2.77;1.60;;;17.30;99.90;;;;;;1997478;71;21058;-81
2021/08/04 06:35:34;;;;;;;1.98;1.42;;;17.30;99.90;;;;;;1997475;72;21063;-81
2021/08/04 06:38:00;;;;;;;2.10;1.90;;;17.60;99.90;;;;;;1997321;72;21474;-81
2021/08/04 06:40:27;;;;;;;4.85;1.50;;;17.60;99.90;;;;;;1997347;70;21498;-80
2021/08/04 06:42:54;;;;;;;3.08;1.67;;;17.80;99.90;;;;;;1997381;71;21132;-79
2021/08/04 06:45:21;;;;;;;2.17;1.50;;;17.90;99.90;;;;;;1997323;71;21075;-79
2021/08/04 06:47:47;;;;;;;1.67;1.40;;;18.00;99.90;;;;;;1997340;72;21062;-79
2021/08/04 06:50:13;;;;;;;1.60;1.45;;;18.00;99.90;;;;;;1997372;72;21071;-79
2021/08/04 06:52:40;;;;;;;6.83;1.10;;;17.80;99.90;;;;;;1997314;72;21054;-79
2021/08/04 06:55:06;;;;;;;2.65;1.30;;;17.80;99.90;;;;;;1997436;70;21055;-79
2021/08/04 06:57:32;;;;;;;1.85;1.50;;;17.70;99.90;;;;;;1998289;71;21108;-79
2021/08/04 06:59:58;;;;;;;2.10;1.52;;;17.80;99.90;;;;;;2001343;71;21031;-80
2021/08/04 07:02:24;;;;;;;2.35;1.20;;;17.60;99.90;;;;;;2000481;71;21033;-79
2021/08/04 07:04:50;;;;;;;2.37;1.30;;;17.60;99.90;;;;;;1997678;72;21078;-79
2021/08/04 07:07:16;;;;;;;4.37;1.40;;;17.60;99.90;;;;;;1997328;72;21065;-79
2021/08/04 07:09:43;;;;;;;3.92;1.52;;;17.80;99.90;;;;;;1997562;72;21147;-79
2021/08/04 07:12:10;;;;;;;1.12;1.05;;;17.70;99.90;;;;;;1997413;72;21442;-78
2021/08/04 07:14:37;;;;;;;1.32;1.00;;;17.60;99.90;;;;;;1997505;70;21065;-77
2021/08/04 07:17:03;;;;;;;1.40;1.30;;;17.70;99.90;;;;;;1997716;72;21163;-78
2021/08/04 07:19:29;;;;;;;4.58;1.45;;;17.60;99.90;;;;;;1997327;72;21054;-78
2021/08/04 07:21:55;;;;;;;1.22;1.12;;;17.90;99.90;;;;;;1997285;72;21556;-78
2021/08/04 07:24:21;;;;;;;2.27;1.30;;;18.20;99.90;;;;;;1997540;72;21466;-78
2021/08/04 07:26:47;;;;;;;5.30;1.30;;;18.30;99.90;;;;;;1997446;72;21548;-77
2021/08/04 07:29:13;;;;;;;1.42;1.20;;;19.00;99.90;;;;;;1997689;71;21244;-78
2021/08/04 07:31:40;;;;;;;2.25;1.20;;;20.20;99.90;;;;;;1997396;72;21050;-79
2021/08/04 07:34:08;;;;;;;3.30;1.30;;;20.90;99.90;;;;;;1997620;70;21125;-81
2021/08/04 07:36:33;;;;;;;2.27;0.85;;;21.50;99.90;;;;;;1996936;72;21109;-77
2021/08/04 07:39:00;;;;;;;1.22;1.12;;;22.00;99.90;;;;;;1997586;70;21066;-79
2021/08/04 07:41:26;;;;;;;2.77;1.32;;;22.10;99.90;;;;;;1997716;72;21527;-79
2021/08/04 07:44:03;;;;;;;1.42;1.20;;;21.40;99.90;;;;;;1999538;72;21023;-77
2021/08/04 07:46:32;;;;;;;1.77;0.98;;;21.60;99.90;;;;;;1992825;72;21056;-80
2021/08/04 07:48:57;;;;;;;1.45;1.20;;;21.80;99.90;;;;;;1991536;72;21104;-79
2021/08/04 07:51:24;;;;;;;1.47;1.05;;;22.40;99.90;;;;;;1998154;72;21089;-78
2021/08/04 07:53:50;;;;;;;1.65;1.20;;;22.20;99.90;;;;;;1997213;70;21023;-77
2021/08/04 07:56:21;;;;;;;1.95;1.20;;;20.70;99.90;;;;;;1997635;72;21019;-78
2021/08/04 07:58:44;;;;;;;3.37;0.95;;;21.40;99.90;;;;;;1996793;72;21089;-78
2021/08/04 08:01:10;;;;;;;1.50;1.15;;;20.90;99.90;;;;;;1997406;71;21046;-77
2021/08/04 08:03:36;;;;;;;1.30;0.82;;;20.40;99.90;;;;;;1997386;72;21120;-77
2021/08/04 08:06:02;;;;;;;1.02;1.02;;;21.10;99.90;;;;;;1997372;72;21050;-78
2021/08/04 08:08:28;;;;;;;1.45;1.10;;;21.20;99.90;;;;;;1997386;72;21116;-78
2021/08/04 08:10:54;;;;;;;2.55;1.42;;;21.60;99.90;;;;;;1997389;72;21050;-77
2021/08/04 08:13:21;;;;;;;1.80;1.00;;;21.70;99.90;;;;;;1997467;72;21051;-78
2021/08/04 08:15:47;;;;;;;4.97;1.62;;;21.40;99.90;;;;;;1997409;72;21116;-77
2021/08/04 08:18:13;;;;;;;2.02;1.22;;;21.60;99.90;;;;;;1997300;72;21155;-76
2021/08/04 08:20:40;;;;;;;1.10;1.00;;;21.60;99.90;;;;;;1997603;72;21099;-77
2021/08/04 08:23:06;;;;;;;1.25;1.02;;;21.80;99.90;;;;;;1997237;72;21054;-78
2021/08/04 08:25:32;;;;;;;1.77;1.20;;;22.30;99.90;;;;;;1997487;72;21027;-79
2021/08/04 08:27:59;;;;;;;1.37;1.00;;;22.60;99.90;;;;;;1997315;72;21116;-78
2021/08/04 08:30:25;;;;;;;2.08;1.02;;;22.50;99.90;;;;;;1997404;72;21136;-79
2021/08/04 08:32:52;;;;;;;4.25;1.20;;;21.20;99.90;;;;;;1997304;72;21062;-78
2021/08/04 08:35:18;;;;;;;1.22;1.12;;;20.80;99.90;;;;;;1997426;72;21127;-79
2021/08/04 08:37:44;;;;;;;0.80;0.80;;;20.80;99.90;;;;;;1997320;70;21188;-77
2021/08/04 08:40:10;;;;;;;1.60;1.00;;;20.70;99.90;;;;;;1997345;72;21150;-79
2021/08/04 08:42:36;;;;;;;1.57;1.02;;;20.30;99.90;;;;;;1996825;72;21046;-78
2021/08/04 08:45:02;;;;;;;1.95;1.10;;;19.70;99.90;;;;;;1997426;72;21205;-78
2021/08/04 08:47:28;;;;;;;2.47;1.10;;;20.10;99.90;;;;;;1997331;72;21015;-78
2021/08/04 08:49:54;;;;;;;1.35;1.12;;;20.60;99.90;;;;;;1997537;72;21046;-78
2021/08/04 08:52:21;;;;;;;2.12;1.07;;;20.80;99.90;;;;;;1997288;72;21124;-78
2021/08/04 08:54:47;;;;;;;2.90;1.25;;;20.50;99.90;;;;;;1997229;72;21089;-78
2021/08/04 08:57:13;;;;;;;1.32;1.22;;;20.40;99.90;;;;;;1997255;72;21093;-78
2021/08/04 08:59:39;;;;;;;1.20;1.10;;;20.20;99.90;;;;;;1997286;72;20983;-78
2021/08/04 09:02:05;;;;;;;1.45;1.00;;;20.30;99.90;;;;;;1997588;72;21046;-78
2021/08/04 09:04:31;;;;;;;1.57;1.12;;;20.30;99.90;;;;;;1994036;72;21057;-78
2021/08/04 09:06:57;;;;;;;2.42;1.07;;;20.50;99.90;;;;;;1995664;72;21057;-78
2021/08/04 09:09:24;;;;;;;2.67;1.10;;;20.70;99.90;;;;;;1997316;72;21148;-79
2021/08/04 09:11:50;;;;;;;2.72;0.95;;;20.80;99.90;;;;;;1997401;72;21031;-79
2021/08/04 09:14:16;;;;;;;1.92;1.12;;;21.40;99.90;;;;;;1997195;72;21127;-80
2021/08/04 09:16:43;;;;;;;2.17;1.20;;;20.70;99.90;;;;;;1995275;72;21130;-80
2021/08/04 09:19:10;;;;;;;1.05;0.90;;;19.90;99.90;;;;;;1994347;72;21058;-80
2021/08/04 09:21:36;;;;;;;2.25;1.17;;;20.10;99.90;;;;;;1997284;72;21067;-80
2021/08/04 09:24:02;;;;;;;5.33;1.10;;;20.20;99.90;;;;;;1997481;70;21054;-80
2021/08/04 09:26:28;;;;;;;1.85;1.27;;;20.40;99.90;;;;;;1997482;71;21058;-80
2021/08/04 09:28:54;;;;;;;1.27;1.00;;;20.70;99.90;;;;;;1997554;72;21093;-79
2021/08/04 09:31:20;;;;;;;1.12;1.02;;;21.00;99.90;;;;;;1997657;72;21128;-80
2021/08/04 09:33:47;;;;;;;2.40;1.40;;;21.30;99.90;;;;;;1997686;72;21058;-82
2021/08/04 09:36:13;;;;;;;1.72;1.10;;;21.10;99.90;;;;;;1997615;72;21159;-81
2021/08/04 09:38:39;;;;;;;2.37;1.07;;;21.50;99.90;;;;;;1997599;72;21023;-81
2021/08/04 09:41:07;;;;;;;1.92;1.00;;;21.80;99.90;;;;;;1997615;70;21128;-80
2021/08/04 09:43:33;;;;;;;1.47;1.00;;;22.10;99.90;;;;;;1997512;71;21171;-80
2021/08/04 09:45:59;;;;;;;1.77;1.12;;;22.10;99.90;;;;;;1997732;72;21062;-80
2021/08/04 09:48:25;;;;;;;1.80;1.00;;;22.20;99.90;;;;;;2009978;70;21032;-79
2021/08/04 09:50:51;;;;;;;1.20;1.00;;;21.50;99.90;;;;;;2034391;70;21123;-80
2021/08/04 09:53:18;;;;;;;1.10;0.95;;;21.20;99.90;;;;;;2034545;70;21047;-80
2021/08/04 09:55:44;;;;;;;1.12;1.07;;;21.00;99.90;;;;;;2034454;70;21098;-81
2021/08/04 09:58:10;;;;;;;2.92;1.20;;;21.60;99.90;;;;;;2035631;70;21067;-81
2021/08/04 10:00:37;;;;;;;1.47;1.15;;;21.80;99.90;;;;;;2036075;70;21534;-83
2021/08/04 10:03:04;;;;;;;1.10;0.90;;;21.70;99.90;;;;;;2035624;69;21530;-78
2021/08/04 10:05:30;;;;;;;1.20;1.10;;;21.50;99.90;;;;;;2034603;70;21384;-82
2021/08/04 10:07:56;;;;;;;2.08;1.05;;;21.70;99.90;;;;;;2034480;70;21516;-81
2021/08/04 10:10:22;;;;;;;1.20;1.10;;;21.30;99.90;;;;;;2034723;70;21491;-77
2021/08/04 10:12:48;;;;;;;2.05;1.07;;;21.10;99.90;;;;;;2034846;70;21478;-79
2021/08/04 10:15:14;;;;;;;1.20;1.10;;;21.20;99.90;;;;;;2034743;69;21059;-81
2021/08/04 10:17:40;;;;;;;1.00;0.90;;;21.30;99.90;;;;;;2034579;70;21121;-77
2021/08/04 10:20:06;;;;;;;1.30;1.05;;;21.40;99.90;;;;;;2034447;70;21039;-78
2021/08/04 10:22:32;;;;;;;4.70;1.02;;;21.20;99.90;;;;;;2034567;70;21148;-79
2021/08/04 10:24:59;;;;;;;2.05;1.30;;;21.40;99.90;;;;;;2034717;70;21020;-82
2021/08/04 10:27:25;;;;;;;1.65;1.02;;;21.60;99.90;;;;;;2034691;70;21075;-81
2021/08/04 10:29:52;;;;;;;1.10;1.00;;;22.10;99.90;;;;;;2034509;70;21050;-81
2021/08/04 10:32:20;;;;;;;1.20;1.10;;;22.50;99.90;;;;;;2034403;70;21066;-80
2021/08/04 10:34:46;;;;;;;4.90;1.00;;;22.60;99.90;;;;;;2034179;70;21095;-80
2021/08/04 10:37:15;;;;;;;2.87;1.32;;;22.70;99.90;;;;;;2034353;70;21174;-79
2021/08/04 10:39:41;;;;;;;1.17;1.00;;;23.30;99.90;;;;;;2034361;70;21120;-80
2021/08/04 10:42:07;;;;;;;1.72;0.95;;;23.00;99.90;;;;;;2034375;69;21042;-80
2021/08/04 10:44:33;;;;;;;3.25;1.15;;;23.10;99.90;;;;;;2034408;70;21085;-80
2021/08/04 10:47:02;;;;;;;1.20;1.10;;;23.20;99.90;;;;;;2034485;70;21050;-80
2021/08/04 10:49:27;;;;;;;7.42;1.20;;;23.30;99.90;;;;;;2034253;70;21087;-80
2021/08/04 10:51:53;;;;;;;4.58;3.65;;;23.70;99.90;;;;;;2032193;70;21172;-79
2021/08/04 10:54:20;;;;;;;1.10;1.00;;;23.20;99.90;;;;;;2029901;70;21043;-79
2021/08/04 10:56:48;;;;;;;2.75;1.17;;;22.90;99.90;;;;;;2020436;70;21016;-79
2021/08/04 10:59:14;;;;;;;1.70;1.20;;;22.10;99.90;;;;;;2033651;70;21139;-78
2021/08/04 11:01:40;;;;;;;1.05;0.95;;;22.10;99.90;;;;;;2034416;70;21129;-79
2021/08/04 11:04:06;;;;;;;7.87;1.00;;;22.20;99.90;;;;;;2034544;69;21050;-81
2021/08/04 11:06:32;;;;;;;1.02;0.88;;;22.60;99.90;;;;;;2034386;70;21129;-78
2021/08/04 11:09:00;;;;;;;0.70;0.70;;;22.90;99.90;;;;;;2034521;69;21047;-78
2021/08/04 11:11:26;;;;;;;3.08;0.90;;;23.80;99.90;;;;;;2034312;70;21156;-78
2021/08/04 11:13:53;;;;;;;3.22;0.90;;;24.00;99.90;;;;;;2034363;70;21059;-78
2021/08/04 11:16:19;;;;;;;0.85;0.85;;;23.70;99.90;;;;;;2034517;70;21029;-79
2021/08/04 11:18:46;;;;;;;1.02;1.02;;;23.30;99.90;;;;;;2034450;70;21050;-78
2021/08/04 11:21:12;;;;;;;1.17;0.85;;;22.80;99.90;;;;;;2034410;70;21054;-78
2021/08/04 11:23:38;;;;;;;1.10;0.95;;;22.00;99.90;;;;;;2034410;70;21063;-79
2021/08/04 11:26:04;;;;;;;0.90;0.78;;;21.30;99.90;;;;;;2034423;70;21613;-77
2021/08/04 11:28:30;;;;;;;1.72;0.78;;;21.40;99.90;;;;;;2034379;70;21479;-79
2021/08/04 11:30:56;;;;;;;1.22;1.12;;;21.70;99.90;;;;;;2035091;70;21104;-80
2021/08/04 11:33:25;;;;;;;2.47;0.90;;;22.00;99.90;;;;;;2038429;69;21051;-79
2021/08/04 11:35:50;;;;;;;1.85;0.90;;;22.40;99.90;;;;;;2037399;69;21083;-79
2021/08/04 11:38:16;;;;;;;1.57;1.00;;;22.30;99.90;;;;;;2034521;70;20991;-79
2021/08/04 11:40:42;;;;;;;0.80;0.80;;;22.10;99.90;;;;;;2034341;69;21495;-79
2021/08/04 11:43:09;;;;;;;1.47;1.00;;;22.30;99.90;;;;;;2034526;70;21460;-79
2021/08/04 11:45:35;;;;;;;2.08;1.00;;;22.70;99.90;;;;;;2034311;69;21530;-78
2021/08/04 11:48:01;;;;;;;1.95;1.10;;;22.30;99.90;;;;;;2034374;70;21415;-78
2021/08/04 11:50:27;;;;;;;1.50;0.90;;;22.10;99.90;;;;;;2034691;70;21458;-79
2021/08/04 11:52:53;;;;;;;1.02;0.80;;;22.00;99.90;;;;;;2034295;70;21609;-78
2021/08/04 11:55:19;;;;;;;1.52;1.07;;;22.50;99.90;;;;;;2034265;70;21522;-80
2021/08/04 11:57:50;;;;;;;0.93;0.93;;;22.80;99.90;;;;;;2034409;70;21060;-79
2021/08/04 12:00:14;;;;;;;1.00;0.78;;;23.20;99.90;;;;;;2031917;70;21219;-81
2021/08/04 12:02:42;;;;;;;1.62;1.25;;;23.50;99.90;;;;;;2034314;70;21091;-80
2021/08/04 12:05:10;;;;;;;1.35;0.82;;;23.60;99.90;;;;;;2034333;70;21160;-79
2021/08/04 12:07:38;;;;;;;1.30;1.10;;;24.00;99.90;;;;;;2034149;70;21491;-79
2021/08/04 12:10:04;;;;;;;3.45;1.02;;;23.70;99.90;;;;;;2034313;70;21574;-79
2021/08/04 12:12:35;;;;;;;1.10;0.93;;;23.40;99.90;;;;;;2034463;70;21048;-78
2021/08/04 12:14:58;;;;;;;1.92;0.93;;;22.00;99.90;;;;;;2031923;70;21091;-79
2021/08/04 12:17:24;;;;;;;1.05;0.80;;;21.90;99.90;;;;;;2034500;70;21091;-78
2021/08/04 12:19:52;;;;;;;1.32;0.85;;;21.80;99.90;;;;;;2034207;70;21075;-79
2021/08/04 12:22:18;;;;;;;1.35;1.10;;;22.10;99.90;;;;;;2034293;70;21476;-78
2021/08/04 12:24:44;;;;;;;2.40;0.98;;;22.30;99.90;;;;;;2034220;69;21062;-79
2021/08/04 12:27:11;;;;;;;1.32;0.95;;;22.70;99.90;;;;;;2034265;70;21046;-79
2021/08/04 12:29:37;;;;;;;1.22;1.05;;;22.90;99.90;;;;;;2034242;70;21157;-79
2021/08/04 12:32:03;;;;;;;1.37;1.10;;;23.00;99.90;;;;;;2034296;70;21054;-79
2021/08/04 12:34:29;;;;;;;1.85;1.00;;;23.20;99.90;;;;;;2034361;70;21140;-79
2021/08/04 12:36:55;;;;;;;1.22;1.10;;;23.40;99.90;;;;;;2034406;70;21424;-79
2021/08/04 12:39:21;;;;;;;0.88;0.85;;;23.20;99.90;;;;;;2034304;70;21426;-78
2021/08/04 12:41:48;;;;;;;0.95;0.80;;;22.80;99.90;;;;;;2034411;70;21497;-79
2021/08/04 12:44:15;;;;;;;3.37;1.22;;;23.20;99.90;;;;;;2034118;70;21199;-78